GCLP/LPA METAR and TAF weather

Enter ICAO airport designator
Station Type Date Time Source
GCLP METAR 2020/01/22 12:00 UTC NOAA

GCLP 221200Z 14006KT 040V180 9999 FEW030 SCT065 19/08 Q1019 NOSIG


Station Type Date Time Source
GCLP Decoded METAR 2020/01/22 12:00 UTC NOAA

Gran Canaria - Canary Islands, Spain (GCLP) 27-56N 015-23W 47M
Jan 22, 2020 - 07:00 AM EST / 2020.01.22 1200 UTC
Wind: from the SE (140 degrees) at 7 MPH (6 KT) (direction variable):0
Visibility: greater than 7 mile(s):0
Sky conditions: partly cloudy
Temperature: 66 F (19 C)
Dew Point: 46 F (8 C)
Relative Humidity: 48%
Pressure (altimeter): 30.09 in. Hg (1019 hPa)
ob: GCLP 221200Z 14006KT 040V180 9999 FEW030 SCT065 19/08 Q1019 NOSIG
cycle: 12

Station Type Date Time Source
GCLP TAF 2020/01/22 12:28 UTC NOAA

TAF
AMD GCLP 221226Z 2212/2309 15006KT 9999 BKN040 TX20/2214Z TN14/2307Z PROB30
TEMPO 2212/2215 08010KT
BECMG 2217/2219 30010KT PROB30
TEMPO 2215/2221 RA

Example: see airport list